Time;durP1;ratioP1;P1;durP2;ratioP2;P2;SDS_P1;SDS_P2;PMS_P1;PMS_P2;Temp;Humidity;BMP_temperature;BMP_pressure;BME280_temperature;BME280_humidity;BME280_pressure;Samples;Min_cycle;Max_cycle;Signal;HPM_P1;HPM_P2
2023/05/25 00:01:04;;;;;;;7.40;3.13;;;11.90;76.10;;;;;;5071522;28;20400;-69
2023/05/25 00:03:30;;;;;;;4.65;2.78;;;11.90;76.20;;;;;;5068736;28;20488;-68
2023/05/25 00:05:56;;;;;;;4.85;2.63;;;11.90;76.20;;;;;;5069135;28;20036;-68
2023/05/25 00:08:22;;;;;;;5.95;2.50;;;11.90;76.10;;;;;;5069341;28;20487;-68
2023/05/25 00:10:48;;;;;;;4.65;2.50;;;11.90;76.10;;;;;;5068953;28;20024;-70
2023/05/25 00:13:13;;;;;;;5.28;2.95;;;11.80;76.10;;;;;;5069056;28;20028;-69
2023/05/25 00:15:39;;;;;;;5.25;2.65;;;11.80;76.30;;;;;;5068966;28;20482;-72
2023/05/25 00:18:05;;;;;;;5.18;2.75;;;11.70;76.40;;;;;;5068885;28;20391;-69
2023/05/25 00:20:31;;;;;;;5.65;3.00;;;11.70;76.50;;;;;;5067391;28;20380;-71
2023/05/25 00:22:58;;;;;;;5.50;2.83;;;11.60;76.60;;;;;;5069961;28;20017;-72
2023/05/25 00:25:23;;;;;;;5.88;2.58;;;11.50;76.70;;;;;;5069966;28;20020;-72
2023/05/25 00:27:49;;;;;;;6.35;2.90;;;11.50;76.80;;;;;;5067306;28;20032;-68
2023/05/25 00:30:14;;;;;;;5.68;2.88;;;11.50;77.00;;;;;;5075711;28;20132;-72
2023/05/25 00:32:40;;;;;;;6.35;3.30;;;11.50;77.10;;;;;;5067787;28;20052;-68
2023/05/25 00:35:06;;;;;;;6.68;2.88;;;11.50;77.30;;;;;;5067598;28;20051;-69
2023/05/25 00:37:32;;;;;;;5.82;3.08;;;11.50;77.40;;;;;;5069450;28;20021;-69
2023/05/25 00:39:57;;;;;;;5.10;2.67;;;11.50;77.50;;;;;;5070614;28;20116;-67
2023/05/25 00:42:23;;;;;;;7.82;2.95;;;11.50;77.60;;;;;;5068616;28;20390;-67
2023/05/25 00:44:49;;;;;;;4.22;2.80;;;11.50;77.60;;;;;;5067924;28;20501;-68
2023/05/25 00:47:16;;;;;;;5.80;3.00;;;11.40;77.60;;;;;;5067914;28;20013;-68
2023/05/25 00:49:41;;;;;;;6.75;3.22;;;11.40;77.80;;;;;;5067938;28;20020;-68
2023/05/25 00:52:10;;;;;;;6.43;3.00;;;11.40;78.00;;;;;;5069335;28;20078;-68
2023/05/25 00:54:36;;;;;;;7.53;3.08;;;11.40;78.10;;;;;;5068566;28;20051;-68
2023/05/25 00:57:05;;;;;;;6.00;3.22;;;11.40;78.30;;;;;;5068917;28;20056;-68
2023/05/25 00:59:43;;;;;;;6.22;3.15;;;11.40;78.40;;;;;;5067757;28;20033;-69
2023/05/25 01:02:10;;;;;;;4.43;2.70;;;11.40;78.50;;;;;;5067558;28;20089;-70
2023/05/25 01:04:41;;;;;;;7.95;3.38;;;11.40;78.30;;;;;;5065572;28;20021;-68
2023/05/25 01:07:09;;;;;;;5.63;3.03;;;11.40;78.50;;;;;;5069575;28;20114;-68
2023/05/25 01:09:39;;;;;;;6.00;2.95;;;11.40;78.60;;;;;;5067878;28;20032;-68
2023/05/25 01:12:06;;;;;;;8.32;3.50;;;11.40;78.70;;;;;;5068671;28;20533;-68
2023/05/25 01:14:33;;;;;;;5.82;3.33;;;11.30;78.80;;;;;;5068664;28;20095;-69
2023/05/25 01:16:59;;;;;;;6.32;3.35;;;11.30;79.00;;;;;;5068358;28;20035;-70
2023/05/25 01:19:25;;;;;;;5.88;2.90;;;11.30;79.10;;;;;;5067450;28;20028;-68
2023/05/25 01:22:11;;;;;;;6.50;3.08;;;11.30;79.10;;;;;;5067386;28;20029;-67
2023/05/25 01:24:41;;;;;;;6.82;3.50;;;11.30;79.20;;;;;;5069742;28;20042;-69
2023/05/25 01:27:09;;;;;;;7.13;2.90;;;11.20;79.30;;;;;;5069303;28;20021;-68
2023/05/25 01:29:38;;;;;;;6.97;3.67;;;11.20;79.40;;;;;;5067928;28;20613;-69
2023/05/25 01:32:05;;;;;;;4.80;3.05;;;11.20;79.50;;;;;;5067782;28;20410;-68
2023/05/25 01:34:31;;;;;;;7.38;3.75;;;11.10;79.50;;;;;;5068652;28;20526;-68
2023/05/25 01:36:57;;;;;;;5.22;3.03;;;11.10;79.80;;;;;;5069884;28;20525;-68
2023/05/25 01:39:22;;;;;;;6.55;3.40;;;11.10;79.90;;;;;;5069353;28;20242;-68
2023/05/25 01:41:48;;;;;;;6.10;3.33;;;11.10;79.90;;;;;;5067301;28;20027;-68
2023/05/25 01:44:14;;;;;;;6.60;3.33;;;11.10;80.00;;;;;;5067164;28;20379;-70
2023/05/25 01:46:40;;;;;;;7.97;3.22;;;11.10;80.10;;;;;;5067408;28;20770;-69
2023/05/25 01:49:25;;;;;;;6.28;3.50;;;11.10;80.30;;;;;;5068661;28;20024;-70
2023/05/25 01:52:20;;;;;;;6.88;3.10;;;11.00;80.30;;;;;;5071098;28;20025;-69
2023/05/25 01:55:04;;;;;;;7.22;3.38;;;11.00;80.30;;;;;;5053122;28;20047;-69
2023/05/25 01:57:34;;;;;;;5.75;3.35;;;10.90;80.40;;;;;;5071576;28;20557;-69
2023/05/25 02:00:02;;;;;;;5.45;3.50;;;10.90;80.50;;;;;;5070965;28;20020;-70
2023/05/25 02:02:29;;;;;;;7.63;3.63;;;10.90;80.90;;;;;;5071296;28;20027;-69
2023/05/25 02:04:55;;;;;;;8.88;3.58;;;10.90;80.50;;;;;;5068944;28;20021;-68
2023/05/25 02:07:22;;;;;;;6.40;3.40;;;10.90;80.60;;;;;;5071131;28;20043;-69
2023/05/25 02:09:47;;;;;;;8.02;3.42;;;10.80;80.70;;;;;;5070410;28;20141;-69
2023/05/25 02:12:13;;;;;;;6.38;3.42;;;10.80;80.90;;;;;;5073378;28;20141;-68
2023/05/25 02:14:38;;;;;;;7.55;3.95;;;10.70;81.10;;;;;;5071204;28;20036;-68
2023/05/25 02:17:04;;;;;;;6.38;3.22;;;10.70;81.30;;;;;;5075514;28;20115;-68
2023/05/25 02:19:30;;;;;;;6.50;3.38;;;10.70;81.40;;;;;;5070456;28;20483;-70
2023/05/25 02:21:55;;;;;;;6.70;3.55;;;10.70;81.50;;;;;;5070087;28;20040;-68
2023/05/25 02:24:23;;;;;;;6.00;3.40;;;10.60;81.60;;;;;;5073997;28;20397;-71
2023/05/25 02:26:50;;;;;;;6.93;3.40;;;10.60;81.70;;;;;;5068526;28;20123;-70
2023/05/25 02:29:16;;;;;;;4.88;2.75;;;10.50;81.80;;;;;;5078729;28;20021;-68
2023/05/25 02:31:41;;;;;;;5.40;3.35;;;10.50;81.80;;;;;;5078509;28;20029;-69
2023/05/25 02:34:07;;;;;;;6.65;3.35;;;10.50;81.80;;;;;;5070550;28;20024;-70
2023/05/25 02:36:33;;;;;;;6.45;3.58;;;10.50;81.90;;;;;;5071802;28;20028;-68
2023/05/25 02:38:59;;;;;;;7.47;3.30;;;10.50;82.00;;;;;;5075134;28;20147;-68
2023/05/25 02:41:26;;;;;;;5.47;3.22;;;10.50;82.10;;;;;;5069510;28;20520;-69
2023/05/25 02:43:52;;;;;;;7.78;3.67;;;10.40;82.10;;;;;;5071768;28;20693;-70
2023/05/25 02:46:18;;;;;;;7.25;3.55;;;10.40;82.20;;;;;;5071247;28;20043;-71
2023/05/25 02:48:44;;;;;;;6.20;3.47;;;10.40;82.40;;;;;;5070398;28;20499;-70
2023/05/25 02:51:09;;;;;;;7.47;3.38;;;10.40;82.70;;;;;;5071702;28;20050;-69
2023/05/25 02:53:35;;;;;;;6.70;3.80;;;10.40;82.70;;;;;;5070748;28;20028;-70
2023/05/25 02:56:03;;;;;;;6.55;3.63;;;10.30;82.80;;;;;;5070778;28;20067;-69
2023/05/25 02:58:29;;;;;;;6.55;3.65;;;10.30;82.90;;;;;;5071215;28;20032;-69
2023/05/25 03:00:54;;;;;;;7.70;3.45;;;10.30;83.00;;;;;;5068856;28;20059;-69
2023/05/25 03:03:20;;;;;;;6.53;3.33;;;10.30;83.00;;;;;;5071460;28;20039;-68
2023/05/25 03:05:46;;;;;;;8.77;3.53;;;10.30;83.20;;;;;;5067181;28;20028;-68
2023/05/25 03:08:11;;;;;;;7.22;3.78;;;10.30;83.30;;;;;;5070470;28;20017;-68
2023/05/25 03:10:37;;;;;;;7.90;3.88;;;10.30;83.30;;;;;;5070973;28;20016;-68
2023/05/25 03:13:02;;;;;;;7.18;3.72;;;10.20;83.40;;;;;;5070052;28;20033;-69
2023/05/25 03:15:28;;;;;;;6.47;3.40;;;10.20;83.60;;;;;;5070294;28;20632;-69
2023/05/25 03:17:55;;;;;;;8.32;3.47;;;10.20;83.60;;;;;;5067583;28;20040;-69
2023/05/25 03:20:23;;;;;;;5.50;3.10;;;10.10;83.60;;;;;;5072067;28;20032;-71
2023/05/25 03:22:49;;;;;;;5.57;3.20;;;10.10;83.80;;;;;;5070080;28;20040;-70
2023/05/25 03:25:14;;;;;;;4.63;3.22;;;10.10;83.90;;;;;;5071292;28;20024;-71
2023/05/25 03:27:40;;;;;;;7.70;3.33;;;10.10;83.80;;;;;;5070746;28;20107;-70
2023/05/25 03:30:06;;;;;;;7.43;3.25;;;10.10;83.90;;;;;;5069820;28;20036;-70
2023/05/25 03:32:32;;;;;;;5.90;3.10;;;10.10;83.90;;;;;;5069298;28;20107;-69
2023/05/25 03:34:58;;;;;;;6.25;3.28;;;10.10;83.80;;;;;;5069457;28;20108;-69
2023/05/25 03:37:23;;;;;;;5.57;3.22;;;10.20;83.70;;;;;;5072833;28;20570;-69
2023/05/25 03:39:49;;;;;;;7.10;3.22;;;10.20;83.60;;;;;;5069224;28;20090;-68
2023/05/25 03:42:15;;;;;;;7.97;3.05;;;10.20;83.60;;;;;;5070812;28;20636;-68
2023/05/25 03:44:40;;;;;;;8.35;3.25;;;10.20;83.70;;;;;;5070048;28;20021;-69
2023/05/25 03:47:06;;;;;;;8.38;3.45;;;10.30;83.70;;;;;;5070164;28;20032;-69
2023/05/25 03:49:32;;;;;;;6.72;3.42;;;10.30;83.70;;;;;;5068993;28;20517;-69
2023/05/25 03:52:00;;;;;;;7.45;3.90;;;10.40;83.80;;;;;;5067853;28;20536;-68
2023/05/25 03:54:26;;;;;;;7.88;3.50;;;10.40;83.80;;;;;;5069597;28;20036;-69
2023/05/25 03:56:51;;;;;;;9.30;3.90;;;10.40;83.80;;;;;;5069259;28;20020;-68
2023/05/25 03:59:17;;;;;;;7.68;3.60;;;10.40;83.80;;;;;;5071531;28;20104;-70
2023/05/25 04:01:43;;;;;;;7.97;3.63;;;10.50;83.70;;;;;;5069112;28;20033;-70
2023/05/25 04:04:09;;;;;;;7.07;3.28;;;10.50;83.70;;;;;;5069134;28;20027;-68
2023/05/25 04:06:36;;;;;;;5.45;3.40;;;10.50;83.70;;;;;;5069007;28;20043;-70
2023/05/25 04:09:05;;;;;;;6.18;3.05;;;10.60;83.70;;;;;;5069329;28;20617;-69
2023/05/25 04:11:30;;;;;;;5.85;3.50;;;10.60;83.70;;;;;;5069932;28;20048;-69
2023/05/25 04:13:56;;;;;;;5.50;3.28;;;10.60;83.70;;;;;;5068078;28;20055;-70
2023/05/25 04:16:22;;;;;;;6.40;3.30;;;10.60;83.60;;;;;;5068783;28;20028;-68
2023/05/25 04:18:48;;;;;;;6.25;3.40;;;10.70;83.60;;;;;;5069602;28;20508;-68
2023/05/25 04:21:13;;;;;;;8.38;3.40;;;10.70;83.50;;;;;;5070468;28;20033;-68
2023/05/25 04:23:39;;;;;;;4.88;3.22;;;10.70;83.40;;;;;;5069730;28;20020;-70
2023/05/25 04:26:09;;;;;;;6.38;3.63;;;10.70;83.50;;;;;;5068733;28;20069;-70
2023/05/25 04:28:35;;;;;;;5.72;3.38;;;10.70;83.50;;;;;;5071885;28;20632;-68
2023/05/25 04:31:02;;;;;;;8.23;3.70;;;10.70;83.50;;;;;;5071068;28;20013;-69
2023/05/25 04:33:28;;;;;;;5.95;3.28;;;10.70;83.50;;;;;;5068568;28;20020;-69
2023/05/25 04:35:57;;;;;;;7.63;3.38;;;10.80;83.60;;;;;;5069118;28;20032;-69
2023/05/25 04:38:24;;;;;;;8.90;3.88;;;10.80;83.50;;;;;;5069618;28;20371;-68
2023/05/25 04:40:50;;;;;;;8.45;3.60;;;10.90;83.50;;;;;;5066602;28;20548;-69
2023/05/25 04:43:17;;;;;;;6.75;3.72;;;10.90;83.40;;;;;;5068779;28;20064;-69
2023/05/25 04:45:44;;;;;;;6.35;3.78;;;10.90;83.40;;;;;;5068311;28;20020;-69
2023/05/25 04:48:11;;;;;;;6.30;3.80;;;10.90;83.60;;;;;;5069984;28;20020;-70
2023/05/25 04:50:39;;;;;;;6.15;3.78;;;10.90;83.70;;;;;;5068593;28;20368;-68
2023/05/25 04:53:05;;;;;;;7.72;3.50;;;10.90;83.70;;;;;;5068967;28;20051;-69
2023/05/25 04:55:30;;;;;;;5.97;3.65;;;10.90;83.70;;;;;;5069090;28;20028;-70
2023/05/25 04:57:56;;;;;;;6.40;3.78;;;11.00;83.80;;;;;;5068586;28;20032;-70
2023/05/25 05:00:21;;;;;;;5.78;3.67;;;11.20;84.00;;;;;;5068187;28;20107;-68
2023/05/25 05:02:47;;;;;;;5.47;3.45;;;11.80;82.90;;;;;;5068339;28;20031;-68
2023/05/25 05:05:13;;;;;;;6.53;3.47;;;12.50;81.10;;;;;;5067094;28;20753;-68
2023/05/25 05:07:38;;;;;;;5.65;3.72;;;13.10;78.80;;;;;;5067739;28;20033;-70
2023/05/25 05:10:05;;;;;;;7.68;3.63;;;13.50;77.10;;;;;;5067489;28;20028;-68
2023/05/25 05:12:30;;;;;;;6.95;3.60;;;14.00;75.50;;;;;;5067333;28;20028;-69
2023/05/25 05:14:56;;;;;;;7.50;3.85;;;14.50;74.10;;;;;;5077442;28;20108;-68
2023/05/25 05:17:22;;;;;;;8.48;4.10;;;14.70;72.90;;;;;;5079582;28;20075;-68
2023/05/25 05:19:48;;;;;;;6.43;3.35;;;15.10;71.80;;;;;;5078255;28;20028;-68
2023/05/25 05:22:14;;;;;;;8.55;3.40;;;15.40;70.80;;;;;;5080189;28;20387;-68
2023/05/25 05:24:41;;;;;;;4.88;3.17;;;15.70;69.90;;;;;;5086157;28;20089;-68
2023/05/25 05:27:06;;;;;;;6.55;3.10;;;16.00;69.00;;;;;;5084465;28;20031;-68
2023/05/25 05:29:33;;;;;;;5.07;3.08;;;16.10;68.60;;;;;;5082514;28;20016;-68
2023/05/25 05:31:59;;;;;;;6.32;3.28;;;16.20;68.00;;;;;;5072763;28;20392;-68
2023/05/25 05:34:25;;;;;;;7.38;3.40;;;16.00;68.10;;;;;;5088053;28;20023;-68
2023/05/25 05:36:51;;;;;;;7.38;3.58;;;15.80;68.40;;;;;;5085690;28;20028;-69
2023/05/25 05:39:16;;;;;;;9.20;3.67;;;15.30;69.50;;;;;;5083531;28;20142;-69
2023/05/25 05:41:44;;;;;;;6.70;3.58;;;14.80;71.00;;;;;;5081788;28;20021;-69
2023/05/25 05:44:11;;;;;;;7.47;3.97;;;14.40;72.40;;;;;;5083570;28;20066;-69
2023/05/25 05:46:37;;;;;;;7.82;3.70;;;14.00;73.90;;;;;;5085633;28;20070;-69
2023/05/25 05:49:02;;;;;;;7.22;3.58;;;13.80;74.90;;;;;;5085210;28;20072;-69
2023/05/25 05:51:28;;;;;;;6.15;3.28;;;13.80;75.60;;;;;;5082085;28;20470;-68
2023/05/25 05:53:54;;;;;;;9.45;4.07;;;13.80;75.80;;;;;;5081773;28;20016;-68
2023/05/25 05:56:20;;;;;;;8.68;4.25;;;13.80;75.90;;;;;;5084595;28;20056;-69
2023/05/25 05:58:48;;;;;;;8.85;3.80;;;13.90;76.70;;;;;;5085274;28;20070;-68
2023/05/25 06:01:17;;;;;;;6.57;3.63;;;14.80;75.40;;;;;;5083615;28;20475;-69
2023/05/25 06:03:44;;;;;;;7.47;3.80;;;16.00;72.60;;;;;;5079035;28;20031;-69
2023/05/25 06:06:10;;;;;;;8.50;3.33;;;16.90;69.80;;;;;;5083119;28;20016;-67
2023/05/25 06:08:35;;;;;;;7.93;3.60;;;17.50;67.50;;;;;;5079188;28;20104;-69
2023/05/25 06:11:01;;;;;;;7.38;3.58;;;18.00;66.20;;;;;;5086769;28;20121;-69
2023/05/25 06:13:26;;;;;;;9.63;3.65;;;18.30;65.40;;;;;;5081773;28;20025;-67
2023/05/25 06:15:52;;;;;;;7.85;3.85;;;18.40;64.80;;;;;;5070863;28;20070;-69
2023/05/25 06:18:18;;;;;;;8.88;4.20;;;18.50;64.70;;;;;;5080997;28;20483;-69
2023/05/25 06:20:43;;;;;;;8.15;4.70;;;18.60;64.70;;;;;;5085015;28;20150;-68
2023/05/25 06:23:11;;;;;;;8.00;4.38;;;18.60;64.60;;;;;;5083535;28;20020;-68
2023/05/25 06:25:37;;;;;;;10.57;4.10;;;18.40;64.70;;;;;;5081145;28;20038;-70
2023/05/25 06:28:02;;;;;;;10.20;4.63;;;18.40;65.60;;;;;;5081194;28;20475;-69
2023/05/25 06:30:28;;;;;;;8.57;4.40;;;18.10;65.90;;;;;;5080693;28;20146;-68
2023/05/25 06:32:53;;;;;;;9.57;4.40;;;17.80;66.80;;;;;;5078365;28;20103;-67
2023/05/25 06:35:19;;;;;;;10.70;4.15;;;17.50;67.60;;;;;;5084760;28;20043;-69
2023/05/25 06:37:48;;;;;;;9.52;4.78;;;17.30;68.10;;;;;;5080626;28;20020;-69
2023/05/25 06:40:17;;;;;;;9.18;4.40;;;17.10;68.30;;;;;;5082643;28;20035;-68
2023/05/25 06:42:43;;;;;;;9.88;4.22;;;16.80;68.70;;;;;;5083056;28;20028;-68
2023/05/25 06:45:09;;;;;;;11.73;4.78;;;16.50;69.70;;;;;;5086148;28;20562;-71
2023/05/25 06:47:35;;;;;;;11.35;5.53;;;16.10;70.40;;;;;;5081085;28;20560;-68
2023/05/25 06:50:01;;;;;;;8.10;4.43;;;15.70;71.50;;;;;;5080328;28;20115;-68
2023/05/25 06:52:30;;;;;;;10.57;3.90;;;15.40;72.90;;;;;;5089448;28;20091;-68
2023/05/25 06:54:56;;;;;;;8.52;4.40;;;15.40;73.40;;;;;;5084300;28;20040;-69
2023/05/25 06:57:22;;;;;;;10.00;4.57;;;15.20;74.10;;;;;;5070452;28;20048;-69
2023/05/25 06:59:48;;;;;;;8.30;3.70;;;15.30;74.60;;;;;;5071963;28;20021;-67
2023/05/25 07:02:14;;;;;;;7.32;3.72;;;15.40;74.40;;;;;;5076193;28;20082;-68
2023/05/25 07:04:40;;;;;;;9.43;4.50;;;15.50;74.20;;;;;;5085394;28;20398;-69
2023/05/25 07:07:05;;;;;;;7.45;3.40;;;15.50;73.90;;;;;;5073044;28;20031;-68
2023/05/25 07:09:31;;;;;;;7.07;3.28;;;15.50;73.70;;;;;;5079675;28;20039;-68
2023/05/25 07:11:57;;;;;;;6.28;3.10;;;15.60;73.50;;;;;;5079863;28;20016;-68
2023/05/25 07:14:22;;;;;;;9.30;3.72;;;15.60;73.40;;;;;;5073979;28;20055;-67
2023/05/25 07:16:48;;;;;;;11.32;4.63;;;15.60;73.50;;;;;;5089439;28;20032;-67
2023/05/25 07:19:13;;;;;;;7.55;3.63;;;15.60;73.10;;;;;;5072481;28;20029;-68
2023/05/25 07:21:39;;;;;;;10.85;3.60;;;15.40;73.60;;;;;;5071925;28;20035;-68
2023/05/25 07:24:05;;;;;;;8.13;3.42;;;15.50;73.60;;;;;;5072253;28;20361;-67
2023/05/25 07:26:32;;;;;;;6.88;3.10;;;15.50;73.40;;;;;;5074831;28;20051;-68
2023/05/25 07:28:57;;;;;;;8.25;3.20;;;15.60;73.30;;;;;;5069760;28;20386;-68
2023/05/25 07:31:23;;;;;;;6.72;2.70;;;15.70;72.80;;;;;;5073364;28;20030;-69
2023/05/25 07:33:49;;;;;;;8.55;3.55;;;15.90;72.40;;;;;;5080505;28;20031;-67
2023/05/25 07:36:15;;;;;;;8.70;3.53;;;15.90;71.80;;;;;;5072208;28;20029;-68
2023/05/25 07:38:41;;;;;;;8.60;3.08;;;15.80;71.50;;;;;;5071418;28;20079;-69
2023/05/25 07:41:06;;;;;;;6.97;3.20;;;15.80;71.40;;;;;;5072193;28;20043;-68
2023/05/25 07:43:32;;;;;;;6.10;3.30;;;15.80;71.20;;;;;;5072443;28;20398;-68
2023/05/25 07:45:59;;;;;;;10.02;3.70;;;15.80;71.10;;;;;;5086296;28;20012;-68
2023/05/25 07:48:25;;;;;;;9.80;4.10;;;15.90;71.00;;;;;;5076402;28;20422;-69
2023/05/25 07:50:51;;;;;;;9.25;3.60;;;16.00;70.50;;;;;;5090546;28;20028;-67
2023/05/25 07:53:17;;;;;;;8.13;4.03;;;16.00;70.30;;;;;;5070525;28;20103;-67
2023/05/25 07:55:42;;;;;;;8.48;3.78;;;16.10;69.90;;;;;;5074212;28;20462;-68
2023/05/25 07:58:08;;;;;;;7.15;2.97;;;16.20;70.30;;;;;;5071845;28;20020;-70
2023/05/25 08:00:33;;;;;;;6.88;3.38;;;16.40;69.10;;;;;;5071213;28;20024;-68
2023/05/25 08:03:01;;;;;;;6.28;2.75;;;16.50;68.30;;;;;;5070360;28;20020;-68
2023/05/25 08:05:26;;;;;;;10.35;4.20;;;16.70;68.20;;;;;;5071848;28;20017;-68
2023/05/25 08:07:52;;;;;;;9.27;3.78;;;16.60;67.20;;;;;;5079027;28;20024;-68
2023/05/25 08:10:18;;;;;;;10.90;3.85;;;16.40;67.30;;;;;;5068058;28;20048;-68
2023/05/25 08:12:43;;;;;;;11.10;4.78;;;16.20;67.30;;;;;;5070043;28;20028;-68
2023/05/25 08:15:09;;;;;;;6.45;3.53;;;16.00;67.70;;;;;;5079061;28;20363;-68
2023/05/25 08:17:34;;;;;;;7.63;3.28;;;15.90;68.50;;;;;;5069207;28;20517;-68
2023/05/25 08:20:00;;;;;;;10.43;3.28;;;16.10;68.60;;;;;;5082923;28;20497;-69
2023/05/25 08:22:26;;;;;;;9.65;4.00;;;16.30;68.30;;;;;;5076652;28;20027;-68
2023/05/25 08:24:51;;;;;;;8.60;3.22;;;16.20;67.90;;;;;;5070456;28;20016;-67
2023/05/25 08:27:17;;;;;;;11.77;4.47;;;16.20;67.80;;;;;;5072548;28;20457;-67
2023/05/25 08:29:43;;;;;;;6.97;3.40;;;16.20;67.80;;;;;;5080896;28;20044;-67
2023/05/25 08:32:08;;;;;;;8.77;3.85;;;16.30;67.90;;;;;;5081075;28;20086;-68
2023/05/25 08:34:34;;;;;;;9.45;4.05;;;16.50;67.50;;;;;;5079505;28;20073;-68
2023/05/25 08:36:59;;;;;;;6.90;3.42;;;16.50;66.90;;;;;;5078762;28;20012;-67
2023/05/25 08:39:25;;;;;;;8.80;3.63;;;16.60;66.90;;;;;;5083974;28;20020;-67
2023/05/25 08:41:51;;;;;;;9.95;3.40;;;16.60;67.00;;;;;;5073854;28;20025;-69
2023/05/25 08:44:18;;;;;;;8.25;3.85;;;16.60;66.90;;;;;;5078703;28;20103;-68
2023/05/25 08:46:48;;;;;;;7.20;3.10;;;16.60;66.90;;;;;;5070728;28;20040;-68
2023/05/25 08:49:14;;;;;;;7.18;3.42;;;16.60;67.00;;;;;;5070495;28;20563;-69
2023/05/25 08:51:58;;;;;;;9.75;3.83;;;16.60;67.00;;;;;;5070668;28;20107;-67
2023/05/25 08:54:30;;;;;;;10.27;3.63;;;16.60;67.00;;;;;;5069038;28;20025;-67
2023/05/25 08:57:12;;;;;;;11.57;4.35;;;16.70;66.80;;;;;;5070646;28;20023;-67
2023/05/25 08:59:43;;;;;;;6.70;2.90;;;16.70;67.10;;;;;;5069998;28;20025;-68
2023/05/25 09:02:24;;;;;;;9.60;4.10;;;16.80;66.60;;;;;;5076426;28;20035;-69
2023/05/25 09:04:49;;;;;;;6.60;3.33;;;17.00;66.40;;;;;;5089021;28;20375;-69
2023/05/25 09:07:15;;;;;;;11.52;3.75;;;17.10;66.00;;;;;;5089100;28;20024;-69
2023/05/25 09:09:42;;;;;;;6.88;3.50;;;17.10;65.60;;;;;;5090642;28;20020;-67
2023/05/25 09:12:08;;;;;;;7.55;3.17;;;17.00;65.60;;;;;;5077053;28;20016;-70
2023/05/25 09:14:36;;;;;;;8.75;3.30;;;17.00;65.40;;;;;;5070388;28;20113;-69
2023/05/25 09:17:02;;;;;;;12.40;3.78;;;16.90;65.50;;;;;;5070175;28;20017;-69
2023/05/25 09:19:27;;;;;;;8.13;3.22;;;16.90;65.50;;;;;;5070383;28;20407;-69
2023/05/25 09:21:53;;;;;;;7.10;3.53;;;16.90;65.50;;;;;;5069857;28;20036;-67
2023/05/25 09:24:21;;;;;;;9.00;3.60;;;17.10;65.40;;;;;;5069922;28;20107;-67
2023/05/25 09:26:48;;;;;;;8.07;3.35;;;17.10;64.50;;;;;;5069742;28;20043;-69
2023/05/25 09:29:14;;;;;;;7.40;3.20;;;17.10;63.70;;;;;;5069983;28;20028;-68
2023/05/25 09:31:39;;;;;;;7.65;3.28;;;17.10;63.70;;;;;;5069352;28;20017;-67
2023/05/25 09:34:12;;;;;;;7.28;3.13;;;17.00;63.40;;;;;;5069966;28;20364;-68
2023/05/25 09:36:40;;;;;;;6.55;3.08;;;17.00;63.60;;;;;;5070008;28;20029;-68
2023/05/25 09:39:08;;;;;;;5.85;2.95;;;17.00;63.40;;;;;;5069762;28;20017;-68
2023/05/25 09:41:34;;;;;;;6.05;2.85;;;17.00;63.20;;;;;;5069998;28;20046;-68
2023/05/25 09:44:00;;;;;;;9.43;3.70;;;17.20;62.70;;;;;;5070049;28;20033;-68
2023/05/25 09:46:27;;;;;;;5.43;3.20;;;17.50;61.60;;;;;;5069780;28;20035;-68
2023/05/25 09:48:53;;;;;;;7.20;3.20;;;17.70;61.60;;;;;;5069791;28;20021;-68
2023/05/25 09:51:20;;;;;;;8.52;3.67;;;18.00;60.70;;;;;;5069727;28;20059;-69
2023/05/25 09:53:46;;;;;;;8.05;3.95;;;18.00;58.70;;;;;;5069818;28;20032;-69
2023/05/25 09:56:12;;;;;;;6.03;3.05;;;17.90;58.00;;;;;;5071061;28;20024;-68
2023/05/25 09:58:37;;;;;;;5.15;2.67;;;17.70;59.40;;;;;;5081358;28;20024;-70
2023/05/25 10:01:03;;;;;;;5.55;2.80;;;17.80;60.00;;;;;;5078471;28;20082;-68
2023/05/25 10:03:30;;;;;;;6.50;2.88;;;17.90;59.40;;;;;;5068026;28;20025;-69
2023/05/25 10:05:56;;;;;;;5.95;2.97;;;18.00;59.50;;;;;;5069189;28;20031;-69
2023/05/25 10:08:24;;;;;;;7.32;2.65;;;18.20;59.30;;;;;;5069146;28;20017;-69
2023/05/25 10:10:50;;;;;;;4.93;2.75;;;18.20;59.00;;;;;;5066697;28;20037;-68
2023/05/25 10:13:21;;;;;;;5.65;2.40;;;18.20;57.80;;;;;;5071812;28;20086;-68
2023/05/25 10:15:49;;;;;;;7.97;3.60;;;18.30;57.80;;;;;;5063119;28;20020;-70
2023/05/25 10:18:20;;;;;;;8.63;2.97;;;18.20;55.80;;;;;;5072834;28;20017;-68
2023/05/25 10:20:47;;;;;;;6.20;2.58;;;18.00;56.60;;;;;;5073387;28;20111;-68
2023/05/25 10:23:15;;;;;;;5.72;2.58;;;18.00;57.60;;;;;;5068650;28;20017;-68
2023/05/25 10:25:43;;;;;;;6.07;2.72;;;18.10;57.80;;;;;;5072021;28;20025;-69
2023/05/25 10:28:30;;;;;;;8.10;3.40;;;18.30;57.90;;;;;;5077778;28;20059;-69
2023/05/25 10:30:59;;;;;;;5.82;2.80;;;18.50;57.30;;;;;;5075617;28;20100;-69
2023/05/25 10:33:25;;;;;;;8.40;3.55;;;18.60;57.20;;;;;;5078480;28;20035;-69
2023/05/25 10:35:53;;;;;;;7.93;3.20;;;18.50;56.70;;;;;;5073271;28;20021;-68
2023/05/25 10:38:19;;;;;;;5.40;2.70;;;18.60;57.70;;;;;;5076157;28;20032;-69
2023/05/25 10:40:52;;;;;;;8.18;2.80;;;18.90;57.80;;;;;;5068345;28;20029;-69
2023/05/25 10:43:18;;;;;;;4.32;2.40;;;19.20;56.80;;;;;;5065407;28;20056;-69
2023/05/25 10:45:45;;;;;;;5.97;2.70;;;19.20;56.00;;;;;;5069705;28;20031;-70
2023/05/25 10:48:10;;;;;;;6.85;2.95;;;19.20;55.70;;;;;;5072403;28;20012;-69
2023/05/25 10:50:36;;;;;;;4.80;2.58;;;19.10;55.60;;;;;;5072020;28;20104;-69
2023/05/25 10:53:06;;;;;;;5.60;2.67;;;19.00;55.70;;;;;;5072120;28;20016;-69
2023/05/25 10:55:51;;;;;;;3.83;2.05;;;19.00;56.30;;;;;;5064610;28;20857;-70
2023/05/25 10:58:18;;;;;;;5.13;2.83;;;19.00;56.60;;;;;;5065059;28;20037;-70
2023/05/25 11:01:00;;;;;;;6.28;2.78;;;18.90;56.10;;;;;;5067801;28;20037;-69
2023/05/25 11:03:44;;;;;;;4.32;2.30;;;18.80;56.10;;;;;;5070646;28;20020;-69
2023/05/25 11:06:10;;;;;;;6.90;2.97;;;18.80;55.70;;;;;;5068870;28;20118;-69
2023/05/25 11:08:58;;;;;;;4.47;2.53;;;18.80;55.60;;;;;;5071076;28;20027;-69
2023/05/25 11:11:43;;;;;;;5.55;2.67;;;18.80;55.80;;;;;;5069447;28;20479;-69
2023/05/25 11:14:29;;;;;;;4.50;2.35;;;18.70;56.00;;;;;;5068263;28;20017;-69
2023/05/25 11:17:06;;;;;;;4.47;2.25;;;18.70;56.40;;;;;;5069264;28;20054;-69
2023/05/25 11:19:42;;;;;;;4.95;2.20;;;18.70;56.30;;;;;;5064618;28;20101;-69
2023/05/25 11:22:21;;;;;;;4.55;2.17;;;18.80;56.50;;;;;;5065221;28;20486;-71
2023/05/25 11:24:48;;;;;;;5.38;2.60;;;19.00;56.50;;;;;;5071006;28;20047;-69
2023/05/25 11:27:14;;;;;;;3.00;2.00;;;19.20;56.20;;;;;;5070734;28;20036;-70
2023/05/25 11:29:40;;;;;;;6.13;2.50;;;19.40;55.70;;;;;;5072389;28;20662;-69
2023/05/25 11:32:13;;;;;;;5.97;2.40;;;19.40;55.00;;;;;;5069638;28;20510;-70
2023/05/25 11:34:45;;;;;;;3.67;2.00;;;19.40;54.40;;;;;;5073998;28;20021;-69
2023/05/25 11:37:14;;;;;;;4.47;2.20;;;19.40;54.10;;;;;;5074924;28;20520;-69
2023/05/25 11:39:40;;;;;;;5.28;2.40;;;19.40;53.80;;;;;;5078873;28;20021;-70
2023/05/25 11:42:09;;;;;;;3.88;2.35;;;19.70;53.30;;;;;;5086593;28;20039;-69
2023/05/25 11:44:35;;;;;;;4.78;2.30;;;19.90;52.70;;;;;;5079610;28;20017;-69
2023/05/25 11:47:13;;;;;;;6.82;2.75;;;19.90;51.80;;;;;;5076672;28;20012;-69
2023/05/25 11:49:40;;;;;;;4.40;2.22;;;19.90;52.30;;;;;;5079146;28;20486;-70
2023/05/25 11:52:06;;;;;;;5.22;2.30;;;20.00;52.20;;;;;;5082783;28;20013;-69
2023/05/25 11:54:32;;;;;;;5.25;2.53;;;20.10;51.50;;;;;;5078537;28;20521;-70
2023/05/25 11:56:58;;;;;;;8.95;3.10;;;20.40;51.10;;;;;;5069998;28;20371;-70
2023/05/25 11:59:28;;;;;;;6.65;2.53;;;20.40;49.50;;;;;;5082635;28;20020;-69
2023/05/25 12:01:59;;;;;;;4.75;2.40;;;20.40;50.70;;;;;;5082546;28;20099;-70
2023/05/25 12:04:25;;;;;;;6.50;2.97;;;20.70;50.50;;;;;;5078503;28;20026;-67
2023/05/25 12:06:51;;;;;;;6.97;2.78;;;20.60;49.30;;;;;;5079407;28;20104;-67
2023/05/25 12:09:20;;;;;;;5.13;2.30;;;20.50;50.50;;;;;;5083894;28;20043;-67
2023/05/25 12:11:47;;;;;;;8.30;2.88;;;20.50;50.70;;;;;;5087859;28;20008;-68
2023/05/25 12:14:13;;;;;;;4.30;2.55;;;20.50;50.90;;;;;;5087225;28;20020;-67
2023/05/25 12:16:39;;;;;;;4.65;2.65;;;20.50;51.20;;;;;;5085452;28;20013;-68
2023/05/25 12:19:06;;;;;;;6.55;2.83;;;20.50;51.20;;;;;;5076630;28;20048;-68
2023/05/25 12:21:32;;;;;;;7.13;2.70;;;20.40;51.00;;;;;;5088224;28;20016;-68
2023/05/25 12:24:00;;;;;;;6.47;2.97;;;20.20;51.10;;;;;;5075509;28;20028;-68
2023/05/25 12:26:26;;;;;;;6.50;3.15;;;20.20;51.00;;;;;;5075372;28;20025;-67
2023/05/25 12:29:06;;;;;;;7.00;2.60;;;20.00;51.50;;;;;;5066989;28;20058;-69
2023/05/25 12:31:33;;;;;;;6.10;2.75;;;20.20;51.60;;;;;;5070466;28;20386;-67
2023/05/25 12:34:09;;;;;;;6.57;3.25;;;20.30;51.30;;;;;;5063267;28;20021;-69
2023/05/25 12:36:47;;;;;;;5.22;2.92;;;20.20;50.80;;;;;;5064106;28;20090;-69
2023/05/25 12:39:14;;;;;;;5.65;2.95;;;20.40;51.30;;;;;;5079571;28;20024;-68
2023/05/25 12:41:51;;;;;;;4.05;2.42;;;20.70;50.50;;;;;;5088859;28;20020;-69
2023/05/25 12:44:25;;;;;;;4.95;2.28;;;21.00;49.80;;;;;;5088222;28;20016;-67
2023/05/25 12:46:52;;;;;;;5.93;2.90;;;21.20;49.20;;;;;;5078202;28;20058;-68